Time,TemperatureF,DewpointF,PressureIn,WindDirection,WindDirectionDegrees,WindSpeedMPH,WindSpeedGustMPH,Humidity,HourlyPrecipIn,Conditions,Clouds,dailyrainin,SolarRadiationWatts/m^2,SoftwareType,DateUTC
2013-10-06 00:02:00,62.4,62.4,29.70,ESE,123,7.0,8.0,100,0.00,,,0.00,0,Wunderground v.1.15,2013-10-06 05:02:00,
2013-10-06 00:12:00,62.4,62.4,29.70,SE,126,7.0,11.0,100,0.00,,,0.00,0,Wunderground v.1.15,2013-10-06 05:12:00,
2013-10-06 00:22:00,62.4,62.4,29.69,ENE,71,7.0,7.0,100,0.00,,,0.00,0,Wunderground v.1.15,2013-10-06 05:22:00,
2013-10-06 00:32:00,62.4,62.4,29.69,ESE,116,5.0,5.0,100,0.00,,,0.00,0,Wunderground v.1.15,2013-10-06 05:32:00,
2013-10-06 00:42:00,62.3,62.3,29.69,SE,127,5.0,8.0,100,0.00,,,0.00,0,Wunderground v.1.15,2013-10-06 05:42:00,
2013-10-06 00:52:00,62.1,62.1,29.69,ESE,121,5.0,6.0,100,0.00,,,0.00,0,Wunderground v.1.15,2013-10-06 05:52:00,
2013-10-06 01:02:00,62.1,62.1,29.68,SE,140,5.0,6.0,100,0.00,,,0.00,0,Wunderground v.1.15,2013-10-06 06:02:00,
2013-10-06 01:12:00,62.3,62.3,29.68,SE,126,6.0,10.0,100,0.00,,,0.00,0,Wunderground v.1.15,2013-10-06 06:12:00,
2013-10-06 01:22:00,62.1,62.1,29.69,SE,131,6.0,6.0,100,0.00,,,0.00,0,Wunderground v.1.15,2013-10-06 06:22:00,
2013-10-06 01:32:00,62.1,62.1,29.69,SE,127,6.0,6.0,100,0.00,,,0.00,0,Wunderground v.1.15,2013-10-06 06:32:00,
2013-10-06 01:42:00,62.1,62.1,29.69,ESE,110,6.0,10.0,100,0.00,,,0.00,0,Wunderground v.1.15,2013-10-06 06:42:00,
2013-10-06 01:52:00,62.1,62.1,29.68,SE,130,8.0,8.0,100,0.00,,,0.00,0,Wunderground v.1.15,2013-10-06 06:52:00,
2013-10-06 02:02:00,62.0,62.0,29.67,ESE,117,7.0,7.0,100,0.00,,,0.00,0,Wunderground v.1.15,2013-10-06 07:02:00,
2013-10-06 02:12:00,62.1,62.1,29.67,WSW,240,6.0,6.0,100,0.00,,,0.00,0,Wunderground v.1.15,2013-10-06 07:12:00,
2013-10-06 02:22:00,62.3,62.3,29.67,South,188,3.0,5.0,100,0.00,,,0.00,0,Wunderground v.1.15,2013-10-06 07:22:00,
2013-10-06 02:42:00,62.7,62.7,29.66,SSE,158,4.0,4.0,100,0.00,,,0.00,0,Wunderground v.1.15,2013-10-06 07:42:00,
2013-10-06 02:52:00,62.7,62.7,29.65,SSE,160,4.0,6.0,100,0.00,,,0.00,0,Wunderground v.1.15,2013-10-06 07:52:00,
2013-10-06 03:02:00,62.6,62.6,29.65,SSE,152,3.0,3.0,100,0.00,,,0.00,0,Wunderground v.1.15,2013-10-06 08:02:00,
2013-10-06 03:12:00,62.7,62.7,29.65,South,175,3.0,3.0,100,0.00,,,0.00,0,Wunderground v.1.15,2013-10-06 08:12:00,
2013-10-06 03:22:00,62.7,62.7,29.65,South,174,3.0,3.0,100,0.00,,,0.00,0,Wunderground v.1.15,2013-10-06 08:22:00,
2013-10-06 03:32:00,62.7,62.7,29.64,South,176,3.0,3.0,100,0.00,,,0.00,0,Wunderground v.1.15,2013-10-06 08:32:00,
2013-10-06 03:42:00,62.7,62.7,29.64,South,181,3.0,5.0,100,0.00,,,0.00,0,Wunderground v.1.15,2013-10-06 08:42:00,
2013-10-06 03:52:00,62.6,62.6,29.65,SSW,192,5.0,5.0,100,0.00,,,0.00,0,Wunderground v.1.15,2013-10-06 08:52:00,
2013-10-06 04:12:00,62.6,62.6,29.64,SSW,192,3.0,4.0,100,0.00,,,0.00,0,Wunderground v.1.15,2013-10-06 09:12:00,
2013-10-06 04:22:00,62.6,62.6,29.64,SSW,192,3.0,3.0,100,0.00,,,0.00,0,Wunderground v.1.15,2013-10-06 09:22:00,
2013-10-06 04:33:00,62.6,62.6,29.63,SSW,192,1.0,1.0,100,0.00,,,0.00,0,Wunderground v.1.15,2013-10-06 09:33:00,
2013-10-06 04:42:00,62.4,62.4,29.63,WSW,258,0.0,5.0,100,0.00,,,0.00,0,Wunderground v.1.15,2013-10-06 09:42:00,
2013-10-06 04:52:00,61.2,61.2,29.62,West,263,3.0,3.0,100,0.00,,,0.00,0,Wunderground v.1.15,2013-10-06 09:52:00,
2013-10-06 05:03:00,60.5,60.5,29.62,West,263,1.0,1.0,100,0.00,,,0.00,0,Wunderground v.1.15,2013-10-06 10:03:00,
2013-10-06 05:12:00,60.4,60.4,29.62,West,263,0.0,1.0,100,0.00,,,0.00,0,Wunderground v.1.15,2013-10-06 10:12:00,
2013-10-06 05:22:00,60.1,60.1,29.63,West,263,0.0,0.0,100,0.00,,,0.00,0,Wunderground v.1.15,2013-10-06 10:22:00,
2013-10-06 05:32:00,59.9,59.9,29.63,West,263,0.0,0.0,100,0.00,,,0.00,0,Wunderground v.1.15,2013-10-06 10:32:00,
2013-10-06 05:42:00,59.8,59.8,29.63,West,263,0.0,0.0,100,0.00,,,0.00,0,Wunderground v.1.15,2013-10-06 10:42:00,
2013-10-06 05:52:00,59.8,59.8,29.64,West,263,0.0,0.0,100,0.00,,,0.00,0,Wunderground v.1.15,2013-10-06 10:52:00,
2013-10-06 06:02:00,59.8,59.8,29.64,West,263,0.0,0.0,100,0.00,,,0.00,0,Wunderground v.1.15,2013-10-06 11:02:00,
2013-10-06 06:12:00,59.8,59.8,29.64,West,263,0.0,2.0,100,0.00,,,0.00,0,Wunderground v.1.15,2013-10-06 11:12:00,
2013-10-06 06:22:00,59.5,59.5,29.63,WNW,302,4.0,4.0,100,0.00,,,0.01,0,Wunderground v.1.15,2013-10-06 11:22:00,
2013-10-06 06:32:00,59.2,59.2,29.63,SW,230,2.0,2.0,100,0.00,,,0.02,0,Wunderground v.1.15,2013-10-06 11:32:00,
2013-10-06 06:42:00,59.2,59.2,29.63,SSW,212,3.0,4.0,100,0.00,,,0.02,0,Wunderground v.1.15,2013-10-06 11:42:00,
2013-10-06 06:52:00,59.0,59.0,29.64,West,271,3.0,3.0,100,0.05,,,0.03,0,Wunderground v.1.15,2013-10-06 11:52:00,
2013-10-06 07:12:00,58.7,58.7,29.65,West,267,1.0,1.0,100,0.00,,,0.04,0,Wunderground v.1.15,2013-10-06 12:12:00,
2013-10-06 07:22:00,58.6,58.6,29.63,West,267,1.0,2.0,100,0.05,,,0.05,0,Wunderground v.1.15,2013-10-06 12:22:00,
2013-10-06 07:32:00,58.4,58.4,29.64,West,268,2.0,2.0,100,0.04,,,0.05,0,Wunderground v.1.15,2013-10-06 12:32:00,
2013-10-06 07:42:00,58.3,58.3,29.64,WSW,253,3.0,4.0,100,0.00,,,0.06,0,Wunderground v.1.15,2013-10-06 12:42:00,
2013-10-06 07:52:00,58.1,58.1,29.66,WSW,244,3.0,3.0,100,0.05,,,0.07,0,Wunderground v.1.15,2013-10-06 12:52:00,
2013-10-06 08:02:00,57.8,57.8,29.65,WSW,254,2.0,2.0,100,0.04,,,0.07,18,Wunderground v.1.15,2013-10-06 13:02:00,
2013-10-06 08:12:00,57.5,57.5,29.65,WSW,256,2.0,2.0,100,0.04,,,0.08,23,Wunderground v.1.15,2013-10-06 13:12:00,
2013-10-06 08:22:00,57.3,57.3,29.65,West,265,2.0,2.0,100,0.05,,,0.09,37,Wunderground v.1.15,2013-10-06 13:22:00,
2013-10-06 08:32:00,57.3,57.3,29.65,SW,236,3.0,3.0,100,0.04,,,0.09,77,Wunderground v.1.15,2013-10-06 13:32:00,
2013-10-06 08:42:00,57.2,57.2,29.65,West,267,4.0,6.0,100,0.00,,,0.10,95,Wunderground v.1.15,2013-10-06 13:42:00,
2013-10-06 08:52:00,57.2,57.2,29.64,WNW,288,4.0,7.0,100,0.05,,,0.11,69,Wunderground v.1.15,2013-10-06 13:52:00,
2013-10-06 09:12:00,56.6,56.6,29.63,West,261,4.0,6.0,100,0.00,,,0.12,49,Wunderground v.1.15,2013-10-06 14:12:00,
2013-10-06 09:22:00,55.9,55.9,29.64,West,275,7.0,7.0,100,0.00,,,0.13,26,Wunderground v.1.15,2013-10-06 14:22:00,
2013-10-06 09:32:00,55.1,55.1,29.65,WSW,244,6.0,8.0,100,0.04,,,0.13,48,Wunderground v.1.15,2013-10-06 14:32:00,
2013-10-06 09:42:00,54.7,54.4,29.65,West,272,4.0,6.0,99,0.00,,,0.13,67,Wunderground v.1.15,2013-10-06 14:42:00,
2013-10-06 09:52:00,54.5,53.9,29.65,WNW,292,3.0,3.0,98,0.00,,,0.13,79,Wunderground v.1.15,2013-10-06 14:52:00,
2013-10-06 10:12:00,54.2,52.8,29.65,WSW,256,4.0,10.0,95,0.00,,,0.13,118,Wunderground v.1.15,2013-10-06 15:12:00,
2013-10-06 10:22:00,54.4,53.0,29.64,WNW,287,4.0,4.0,95,0.00,,,0.13,157,Wunderground v.1.15,2013-10-06 15:22:00,
2013-10-06 10:32:00,54.4,52.7,29.64,WNW,299,6.0,8.0,94,0.00,,,0.13,143,Wunderground v.1.15,2013-10-06 15:32:00,
2013-10-06 10:42:00,54.5,52.8,29.64,West,277,5.0,5.0,94,0.00,,,0.13,132,Wunderground v.1.15,2013-10-06 15:42:00,
2013-10-06 10:52:00,54.8,52.5,29.65,West,268,5.0,11.0,92,0.00,,,0.13,160,Wunderground v.1.15,2013-10-06 15:52:00,
2013-10-06 11:12:00,55.3,52.1,29.64,West,271,5.0,5.0,89,0.00,,,0.13,197,Wunderground v.1.15,2013-10-06 16:12:00,
2013-10-06 11:22:00,56.0,52.8,29.64,West,265,3.0,6.0,89,0.00,,,0.13,253,Wunderground v.1.15,2013-10-06 16:22:00,
2013-10-06 11:32:00,56.5,51.7,29.64,West,263,5.0,6.0,84,0.00,,,0.13,326,Wunderground v.1.15,2013-10-06 16:32:00,
2013-10-06 11:42:00,56.9,52.1,29.64,SW,229,4.0,6.0,84,0.00,,,0.13,326,Wunderground v.1.15,2013-10-06 16:42:00,
2013-10-06 11:52:00,56.7,51.3,29.65,West,261,5.0,7.0,82,0.00,,,0.13,260,Wunderground v.1.15,2013-10-06 16:52:00,
2013-10-06 12:02:00,57.3,50.1,29.64,WSW,241,7.0,7.0,77,0.00,,,0.13,662,Wunderground v.1.15,2013-10-06 17:02:00,
2013-10-06 12:12:00,58.0,50.8,29.64,West,274,5.0,5.0,77,0.00,,,0.13,662,Wunderground v.1.15,2013-10-06 17:12:00,
2013-10-06 12:22:00,59.2,51.6,29.64,West,281,4.0,7.0,76,0.00,,,0.13,662,Wunderground v.1.15,2013-10-06 17:22:00,
2013-10-06 12:32:00,59.3,51.0,29.63,WNW,285,6.0,6.0,74,0.00,,,0.13,609,Wunderground v.1.15,2013-10-06 17:32:00,
2013-10-06 12:42:00,59.9,50.5,29.63,West,281,5.0,7.0,71,0.00,,,0.13,611,Wunderground v.1.15,2013-10-06 17:42:00,
2013-10-06 12:52:00,60.1,49.9,29.63,WNW,288,8.0,8.0,69,0.00,,,0.13,611,Wunderground v.1.15,2013-10-06 17:52:00,
2013-10-06 13:02:00,60.1,49.5,29.62,WNW,295,8.0,12.0,68,0.00,,,0.13,605,Wunderground v.1.15,2013-10-06 18:02:00,
2013-10-06 13:12:00,60.4,49.8,29.62,NW,320,8.0,8.0,68,0.00,,,0.13,602,Wunderground v.1.15,2013-10-06 18:12:00,
2013-10-06 13:22:00,60.7,49.3,29.62,West,272,7.0,7.0,66,0.00,,,0.13,600,Wunderground v.1.15,2013-10-06 18:22:00,
2013-10-06 13:32:00,60.7,50.1,29.62,WNW,285,6.0,11.0,68,0.00,,,0.13,626,Wunderground v.1.15,2013-10-06 18:32:00,
2013-10-06 13:42:00,61.0,50.8,29.62,WNW,299,7.0,9.0,69,0.00,,,0.13,609,Wunderground v.1.15,2013-10-06 18:42:00,
2013-10-06 13:52:00,60.9,49.9,29.61,WNW,282,7.0,7.0,67,0.00,,,0.13,609,Wunderground v.1.15,2013-10-06 18:52:00,
2013-10-06 14:12:00,61.0,50.0,29.61,WNW,285,7.0,7.0,67,0.00,,,0.13,612,Wunderground v.1.15,2013-10-06 19:12:00,
2013-10-06 14:22:00,61.3,48.6,29.61,West,278,6.0,7.0,63,0.00,,,0.13,549,Wunderground v.1.15,2013-10-06 19:22:00,
2013-10-06 14:32:00,62.0,48.4,29.61,West,267,5.0,5.0,61,0.00,,,0.13,524,Wunderground v.1.15,2013-10-06 19:32:00,
2013-10-06 14:42:00,61.8,49.5,29.61,WNW,282,6.0,6.0,64,0.00,,,0.13,516,Wunderground v.1.15,2013-10-06 19:42:00,
2013-10-06 14:52:00,61.3,46.8,29.61,WSW,256,7.0,7.0,59,0.00,,,0.13,498,Wunderground v.1.15,2013-10-06 19:52:00,
2013-10-06 15:02:00,61.2,46.8,29.61,West,277,8.0,8.0,59,0.00,,,0.13,473,Wunderground v.1.15,2013-10-06 20:02:00,
2013-10-06 15:12:00,61.0,46.6,29.61,WNW,298,8.0,10.0,59,0.00,,,0.13,461,Wunderground v.1.15,2013-10-06 20:12:00,
2013-10-06 15:22:00,61.5,46.6,29.61,WNW,292,5.0,6.0,58,0.00,,,0.13,442,Wunderground v.1.15,2013-10-06 20:22:00,
2013-10-06 15:33:00,61.5,45.7,29.61,West,260,6.0,11.0,56,0.00,,,0.13,412,Wunderground v.1.15,2013-10-06 20:33:00,
2013-10-06 15:42:00,61.2,44.9,29.61,WSW,239,7.0,11.0,55,0.00,,,0.13,399,Wunderground v.1.15,2013-10-06 20:42:00,
2013-10-06 15:52:00,61.2,46.3,29.60,WSW,258,7.0,7.0,58,0.00,,,0.13,371,Wunderground v.1.15,2013-10-06 20:52:00,
2013-10-06 16:02:00,61.0,44.2,29.60,WNW,295,8.0,10.0,54,0.00,,,0.13,350,Wunderground v.1.15,2013-10-06 21:02:00,
2013-10-06 16:12:00,61.0,44.2,29.60,WNW,288,6.0,6.0,54,0.00,,,0.13,343,Wunderground v.1.15,2013-10-06 21:12:00,
2013-10-06 16:22:00,61.2,44.4,29.60,West,261,5.0,7.0,54,0.00,,,0.13,306,Wunderground v.1.15,2013-10-06 21:22:00,
2013-10-06 16:32:00,61.2,43.4,29.60,WSW,258,6.0,6.0,52,0.00,,,0.13,267,Wunderground v.1.15,2013-10-06 21:32:00,
2013-10-06 16:42:00,61.0,43.7,29.60,West,278,6.0,6.0,53,0.00,,,0.13,252,Wunderground v.1.15,2013-10-06 21:42:00,
2013-10-06 16:52:00,60.9,43.6,29.60,West,272,5.0,5.0,53,0.00,,,0.13,225,Wunderground v.1.15,2013-10-06 21:52:00,
2013-10-06 17:02:00,60.4,43.2,29.60,NW,323,6.0,6.0,53,0.00,,,0.13,187,Wunderground v.1.15,2013-10-06 22:02:00,
2013-10-06 17:12:00,60.4,43.2,29.60,WSW,246,5.0,5.0,53,0.00,,,0.13,171,Wunderground v.1.15,2013-10-06 22:12:00,
2013-10-06 17:22:00,60.1,43.4,29.60,West,275,3.0,3.0,54,0.00,,,0.13,144,Wunderground v.1.15,2013-10-06 22:22:00,
2013-10-06 17:32:00,59.8,43.1,29.60,WSW,244,4.0,4.0,54,0.00,,,0.13,111,Wunderground v.1.15,2013-10-06 22:32:00,
2013-10-06 17:42:00,59.6,43.4,29.60,WSW,253,1.0,3.0,55,0.00,,,0.13,91,Wunderground v.1.15,2013-10-06 22:42:00,
2013-10-06 17:52:00,59.2,44.0,29.61,West,263,1.0,1.0,57,0.00,,,0.13,49,Wunderground v.1.15,2013-10-06 22:52:00,
2013-10-06 18:12:00,57.0,44.1,29.62,SW,232,0.0,2.0,62,0.00,,,0.13,5,Wunderground v.1.15,2013-10-06 23:12:00,
2013-10-06 18:22:00,55.9,44.7,29.62,SW,232,1.0,2.0,66,0.00,,,0.13,0,Wunderground v.1.15,2013-10-06 23:22:00,
2013-10-06 18:42:00,54.4,44.8,29.62,SW,232,0.0,0.0,70,0.00,,,0.13,0,Wunderground v.1.15,2013-10-06 23:42:00,
2013-10-06 18:52:00,53.9,44.3,29.62,SW,232,0.0,0.0,70,0.00,,,0.13,0,Wunderground v.1.15,2013-10-06 23:52:00,
2013-10-06 19:02:00,53.6,44.4,29.62,SW,232,0.0,0.0,71,0.00,,,0.13,0,Wunderground v.1.15,2013-10-07 00:02:00,
2013-10-06 19:12:00,53.3,44.5,29.62,SW,232,2.0,2.0,72,0.00,,,0.13,0,Wunderground v.1.15,2013-10-07 00:12:00,
2013-10-06 19:22:00,53.2,44.4,29.63,SW,232,1.0,1.0,72,0.00,,,0.13,0,Wunderground v.1.15,2013-10-07 00:22:00,
2013-10-06 19:32:00,52.8,44.4,29.63,WSW,248,1.0,1.0,73,0.00,,,0.13,0,Wunderground v.1.15,2013-10-07 00:32:00,
2013-10-06 19:42:00,52.3,43.9,29.63,WSW,248,1.0,2.0,73,0.00,,,0.13,0,Wunderground v.1.15,2013-10-07 00:42:00,
2013-10-06 19:52:00,52.2,43.8,29.64,WSW,248,0.0,2.0,73,0.00,,,0.13,0,Wunderground v.1.15,2013-10-07 00:52:00,
2013-10-06 20:02:00,52.0,43.6,29.64,WSW,258,2.0,2.0,73,0.00,,,0.13,0,Wunderground v.1.15,2013-10-07 01:02:00,
2013-10-06 20:12:00,51.9,43.9,29.64,WSW,257,1.0,2.0,74,0.00,,,0.13,0,Wunderground v.1.15,2013-10-07 01:12:00,
2013-10-06 20:22:00,51.7,44.0,29.64,WSW,257,1.0,1.0,75,0.00,,,0.13,0,Wunderground v.1.15,2013-10-07 01:22:00,
2013-10-06 20:32:00,51.3,44.0,29.64,WSW,257,1.0,1.0,76,0.00,,,0.13,0,Wunderground v.1.15,2013-10-07 01:32:00,
2013-10-06 20:42:00,51.1,43.8,29.64,WSW,257,0.0,0.0,76,0.00,,,0.13,0,Wunderground v.1.15,2013-10-07 01:42:00,
2013-10-06 20:52:00,51.1,44.1,29.64,WSW,257,1.0,1.0,77,0.00,,,0.13,0,Wunderground v.1.15,2013-10-07 01:52:00,
2013-10-06 21:12:00,51.3,44.3,29.64,West,261,1.0,1.0,77,0.00,,,0.13,0,Wunderground v.1.15,2013-10-07 02:12:00,
2013-10-06 21:22:00,51.4,44.4,29.64,West,261,0.0,0.0,77,0.00,,,0.13,0,Wunderground v.1.15,2013-10-07 02:22:00,
2013-10-06 21:42:00,51.6,44.3,29.64,West,261,1.0,2.0,76,0.00,,,0.13,0,Wunderground v.1.15,2013-10-07 02:42:00,
2013-10-06 21:52:00,51.1,44.1,29.65,West,261,1.0,1.0,77,0.00,,,0.13,0,Wunderground v.1.15,2013-10-07 02:52:00,
2013-10-06 22:02:00,51.1,44.1,29.64,West,261,0.0,0.0,77,0.00,,,0.13,0,Wunderground v.1.15,2013-10-07 03:02:00,
2013-10-06 22:12:00,51.0,44.0,29.64,West,261,0.0,0.0,77,0.00,,,0.13,0,Wunderground v.1.15,2013-10-07 03:12:00,
2013-10-06 22:22:00,51.0,44.4,29.64,West,261,1.0,2.0,78,0.00,,,0.13,0,Wunderground v.1.15,2013-10-07 03:22:00,
2013-10-06 22:32:00,51.0,44.4,29.64,West,278,1.0,1.0,78,0.00,,,0.13,0,Wunderground v.1.15,2013-10-07 03:32:00,
2013-10-06 22:42:00,51.3,44.3,29.64,West,281,2.0,2.0,77,0.00,,,0.13,0,Wunderground v.1.15,2013-10-07 03:42:00,
2013-10-06 22:52:00,51.4,44.4,29.63,WNW,284,1.0,1.0,77,0.00,,,0.13,0,Wunderground v.1.15,2013-10-07 03:52:00,
2013-10-06 23:02:00,51.7,44.4,29.63,WNW,284,1.0,1.0,76,0.00,,,0.13,0,Wunderground v.1.15,2013-10-07 04:02:00,
2013-10-06 23:12:00,51.9,44.6,29.63,WNW,289,1.0,1.0,76,0.00,,,0.13,0,Wunderground v.1.15,2013-10-07 04:12:00,
2013-10-06 23:22:00,51.7,44.0,29.63,WNW,292,1.0,1.0,75,0.00,,,0.13,0,Wunderground v.1.15,2013-10-07 04:22:00,
2013-10-06 23:42:00,51.7,43.7,29.62,NW,304,2.0,2.0,74,0.00,,,0.13,0,Wunderground v.1.15,2013-10-07 04:42:00,
2013-10-06 23:52:00,51.7,43.7,29.62,NW,304,1.0,1.0,74,0.00,,,0.13,0,Wunderground v.1.15,2013-10-07 04:52:00,